sensor_id;sensor_type;location;lat;lon;timestamp;P1;durP1;ratioP1;P2;durP2;ratioP2
11791;SDS011;5953;52.372;9.918;2023-08-12T00:01:07;13.80;;;6.70;;
11791;SDS011;5953;52.372;9.918;2023-08-12T00:03:35;14.38;;;5.90;;
11791;SDS011;5953;52.372;9.918;2023-08-12T00:06:03;13.57;;;6.30;;
11791;SDS011;5953;52.372;9.918;2023-08-12T00:08:31;18.17;;;5.97;;
11791;SDS011;5953;52.372;9.918;2023-08-12T00:11:00;10.88;;;5.43;;
11791;SDS011;5953;52.372;9.918;2023-08-12T00:13:28;7.55;;;5.05;;
11791;SDS011;5953;52.372;9.918;2023-08-12T00:15:56;9.65;;;5.18;;
11791;SDS011;5953;52.372;9.918;2023-08-12T00:18:24;9.25;;;4.80;;
11791;SDS011;5953;52.372;9.918;2023-08-12T00:20:52;7.70;;;4.57;;
11791;SDS011;5953;52.372;9.918;2023-08-12T00:23:19;10.13;;;4.45;;
11791;SDS011;5953;52.372;9.918;2023-08-12T00:28:17;9.73;;;4.55;;
11791;SDS011;5953;52.372;9.918;2023-08-12T00:30:47;13.77;;;4.60;;
11791;SDS011;5953;52.372;9.918;2023-08-12T00:33:15;12.63;;;4.82;;
11791;SDS011;5953;52.372;9.918;2023-08-12T00:35:44;7.18;;;4.20;;
11791;SDS011;5953;52.372;9.918;2023-08-12T00:38:12;13.00;;;5.40;;
11791;SDS011;5953;52.372;9.918;2023-08-12T00:40:40;11.53;;;5.40;;
11791;SDS011;5953;52.372;9.918;2023-08-12T00:43:07;11.18;;;5.05;;
11791;SDS011;5953;52.372;9.918;2023-08-12T00:45:37;8.63;;;4.82;;
11791;SDS011;5953;52.372;9.918;2023-08-12T00:48:05;9.90;;;4.25;;
11791;SDS011;5953;52.372;9.918;2023-08-12T00:50:38;9.25;;;4.10;;
11791;SDS011;5953;52.372;9.918;2023-08-12T00:53:07;8.43;;;4.70;;
11791;SDS011;5953;52.372;9.918;2023-08-12T00:55:35;8.43;;;4.80;;
11791;SDS011;5953;52.372;9.918;2023-08-12T00:58:03;9.75;;;4.38;;
11791;SDS011;5953;52.372;9.918;2023-08-12T01:00:31;13.63;;;4.28;;
11791;SDS011;5953;52.372;9.918;2023-08-12T01:03:01;8.80;;;4.50;;
11791;SDS011;5953;52.372;9.918;2023-08-12T01:05:29;10.47;;;4.87;;
11791;SDS011;5953;52.372;9.918;2023-08-12T01:07:57;13.10;;;3.80;;
11791;SDS011;5953;52.372;9.918;2023-08-12T01:10:26;9.03;;;4.73;;
11791;SDS011;5953;52.372;9.918;2023-08-12T01:13:04;11.10;;;4.80;;
11791;SDS011;5953;52.372;9.918;2023-08-12T01:15:37;11.18;;;4.70;;
11791;SDS011;5953;52.372;9.918;2023-08-12T01:18:07;8.77;;;4.60;;
11791;SDS011;5953;52.372;9.918;2023-08-12T01:20:35;7.70;;;4.13;;
11791;SDS011;5953;52.372;9.918;2023-08-12T01:23:09;7.53;;;4.30;;
11791;SDS011;5953;52.372;9.918;2023-08-12T01:25:38;8.60;;;3.80;;
11791;SDS011;5953;52.372;9.918;2023-08-12T01:28:06;7.53;;;4.03;;
11791;SDS011;5953;52.372;9.918;2023-08-12T01:30:34;6.13;;;4.10;;
11791;SDS011;5953;52.372;9.918;2023-08-12T01:33:07;6.50;;;3.80;;
11791;SDS011;5953;52.372;9.918;2023-08-12T01:35:40;6.78;;;4.50;;
11791;SDS011;5953;52.372;9.918;2023-08-12T01:38:12;7.93;;;3.93;;
11791;SDS011;5953;52.372;9.918;2023-08-12T01:40:40;9.83;;;4.40;;
11791;SDS011;5953;52.372;9.918;2023-08-12T01:43:09;7.93;;;4.10;;
11791;SDS011;5953;52.372;9.918;2023-08-12T01:45:38;6.83;;;3.73;;
11791;SDS011;5953;52.372;9.918;2023-08-12T01:48:06;6.55;;;4.25;;
11791;SDS011;5953;52.372;9.918;2023-08-12T01:50:34;9.45;;;3.95;;
11791;SDS011;5953;52.372;9.918;2023-08-12T01:53:02;5.47;;;3.50;;
11791;SDS011;5953;52.372;9.918;2023-08-12T01:55:31;10.30;;;4.00;;
11791;SDS011;5953;52.372;9.918;2023-08-12T01:57:59;8.33;;;3.83;;
11791;SDS011;5953;52.372;9.918;2023-08-12T02:00:27;6.97;;;4.30;;
11791;SDS011;5953;52.372;9.918;2023-08-12T02:02:55;5.57;;;3.43;;
11791;SDS011;5953;52.372;9.918;2023-08-12T02:05:22;10.47;;;4.13;;
11791;SDS011;5953;52.372;9.918;2023-08-12T02:07:50;8.80;;;4.00;;
11791;SDS011;5953;52.372;9.918;2023-08-12T02:10:18;6.03;;;3.97;;
11791;SDS011;5953;52.372;9.918;2023-08-12T02:12:47;7.17;;;4.20;;
11791;SDS011;5953;52.372;9.918;2023-08-12T02:15:15;4.63;;;3.63;;
11791;SDS011;5953;52.372;9.918;2023-08-12T02:17:43;8.13;;;3.73;;
11791;SDS011;5953;52.372;9.918;2023-08-12T02:20:11;8.33;;;4.30;;
11791;SDS011;5953;52.372;9.918;2023-08-12T02:22:39;7.30;;;3.57;;
11791;SDS011;5953;52.372;9.918;2023-08-12T02:25:07;7.67;;;3.97;;
11791;SDS011;5953;52.372;9.918;2023-08-12T02:27:35;5.07;;;3.83;;
11791;SDS011;5953;52.372;9.918;2023-08-12T02:30:05;6.37;;;4.47;;
11791;SDS011;5953;52.372;9.918;2023-08-12T02:32:33;6.22;;;3.95;;
11791;SDS011;5953;52.372;9.918;2023-08-12T02:35:01;6.45;;;3.60;;
11791;SDS011;5953;52.372;9.918;2023-08-12T02:37:29;7.83;;;3.87;;
11791;SDS011;5953;52.372;9.918;2023-08-12T02:39:57;7.83;;;3.60;;
11791;SDS011;5953;52.372;9.918;2023-08-12T02:42:25;8.10;;;4.30;;
11791;SDS011;5953;52.372;9.918;2023-08-12T02:44:53;5.13;;;3.57;;
11791;SDS011;5953;52.372;9.918;2023-08-12T02:47:22;6.80;;;3.70;;
11791;SDS011;5953;52.372;9.918;2023-08-12T02:49:49;9.20;;;4.03;;
11791;SDS011;5953;52.372;9.918;2023-08-12T02:52:17;9.53;;;3.70;;
11791;SDS011;5953;52.372;9.918;2023-08-12T02:54:45;6.77;;;3.87;;
11791;SDS011;5953;52.372;9.918;2023-08-12T02:57:13;4.63;;;3.47;;
11791;SDS011;5953;52.372;9.918;2023-08-12T02:59:40;6.40;;;3.70;;
11791;SDS011;5953;52.372;9.918;2023-08-12T03:02:08;7.83;;;3.27;;
11791;SDS011;5953;52.372;9.918;2023-08-12T03:04:37;7.73;;;3.40;;
11791;SDS011;5953;52.372;9.918;2023-08-12T03:07:05;8.27;;;3.90;;
11791;SDS011;5953;52.372;9.918;2023-08-12T03:09:33;6.45;;;3.60;;
11791;SDS011;5953;52.372;9.918;2023-08-12T03:12:00;8.17;;;3.63;;
11791;SDS011;5953;52.372;9.918;2023-08-12T03:14:29;5.97;;;3.40;;
11791;SDS011;5953;52.372;9.918;2023-08-12T03:16:57;3.33;;;3.00;;
11791;SDS011;5953;52.372;9.918;2023-08-12T03:19:24;7.43;;;3.73;;
11791;SDS011;5953;52.372;9.918;2023-08-12T03:21:53;5.77;;;3.70;;
11791;SDS011;5953;52.372;9.918;2023-08-12T03:24:21;6.93;;;4.45;;
11791;SDS011;5953;52.372;9.918;2023-08-12T03:26:49;9.33;;;3.80;;
11791;SDS011;5953;52.372;9.918;2023-08-12T03:29:17;6.90;;;3.63;;
11791;SDS011;5953;52.372;9.918;2023-08-12T03:31:45;7.53;;;3.70;;
11791;SDS011;5953;52.372;9.918;2023-08-12T03:34:12;6.90;;;4.03;;
11791;SDS011;5953;52.372;9.918;2023-08-12T03:36:40;6.43;;;3.93;;
11791;SDS011;5953;52.372;9.918;2023-08-12T03:39:09;8.40;;;3.67;;
11791;SDS011;5953;52.372;9.918;2023-08-12T03:41:37;6.73;;;3.60;;
11791;SDS011;5953;52.372;9.918;2023-08-12T03:44:05;4.53;;;3.47;;
11791;SDS011;5953;52.372;9.918;2023-08-12T03:46:33;5.18;;;4.00;;
11791;SDS011;5953;52.372;9.918;2023-08-12T03:49:01;6.53;;;3.63;;
11791;SDS011;5953;52.372;9.918;2023-08-12T03:51:28;7.87;;;3.93;;
11791;SDS011;5953;52.372;9.918;2023-08-12T03:53:56;6.90;;;4.00;;
11791;SDS011;5953;52.372;9.918;2023-08-12T03:56:25;4.50;;;3.77;;
11791;SDS011;5953;52.372;9.918;2023-08-12T03:58:53;6.03;;;4.07;;
11791;SDS011;5953;52.372;9.918;2023-08-12T04:01:21;5.87;;;4.43;;
11791;SDS011;5953;52.372;9.918;2023-08-12T04:03:49;4.77;;;3.93;;
11791;SDS011;5953;52.372;9.918;2023-08-12T04:06:17;6.70;;;3.70;;
11791;SDS011;5953;52.372;9.918;2023-08-12T04:08:45;7.77;;;3.80;;
11791;SDS011;5953;52.372;9.918;2023-08-12T04:11:12;7.53;;;3.73;;
11791;SDS011;5953;52.372;9.918;2023-08-12T04:13:41;7.67;;;4.03;;
11791;SDS011;5953;52.372;9.918;2023-08-12T04:16:09;6.23;;;4.00;;
11791;SDS011;5953;52.372;9.918;2023-08-12T04:18:37;9.23;;;4.17;;
11791;SDS011;5953;52.372;9.918;2023-08-12T04:21:05;8.47;;;4.23;;
11791;SDS011;5953;52.372;9.918;2023-08-12T04:23:32;5.13;;;4.37;;
11791;SDS011;5953;52.372;9.918;2023-08-12T04:26:00;8.07;;;3.90;;
11791;SDS011;5953;52.372;9.918;2023-08-12T04:28:28;9.80;;;4.50;;
11791;SDS011;5953;52.372;9.918;2023-08-12T04:30:57;7.13;;;4.60;;
11791;SDS011;5953;52.372;9.918;2023-08-12T04:33:25;6.20;;;5.17;;
11791;SDS011;5953;52.372;9.918;2023-08-12T04:35:53;7.90;;;4.83;;
11791;SDS011;5953;52.372;9.918;2023-08-12T04:38:21;6.17;;;4.43;;
11791;SDS011;5953;52.372;9.918;2023-08-12T04:40:49;6.23;;;5.03;;
11791;SDS011;5953;52.372;9.918;2023-08-12T04:43:16;8.43;;;5.30;;
11791;SDS011;5953;52.372;9.918;2023-08-12T04:45:45;7.03;;;5.87;;
11791;SDS011;5953;52.372;9.918;2023-08-12T04:48:14;6.43;;;5.83;;
11791;SDS011;5953;52.372;9.918;2023-08-12T04:50:42;6.43;;;5.83;;
11791;SDS011;5953;52.372;9.918;2023-08-12T04:53:10;7.73;;;6.93;;
11791;SDS011;5953;52.372;9.918;2023-08-12T04:55:37;10.07;;;7.10;;
11791;SDS011;5953;52.372;9.918;2023-08-12T04:58:05;9.43;;;7.67;;
11791;SDS011;5953;52.372;9.918;2023-08-12T05:00:33;8.67;;;7.50;;
11791;SDS011;5953;52.372;9.918;2023-08-12T05:03:01;11.63;;;8.77;;
11791;SDS011;5953;52.372;9.918;2023-08-12T05:05:30;11.60;;;7.67;;
11791;SDS011;5953;52.372;9.918;2023-08-12T05:07:58;10.33;;;7.90;;
11791;SDS011;5953;52.372;9.918;2023-08-12T05:10:25;10.43;;;7.97;;
11791;SDS011;5953;52.372;9.918;2023-08-12T05:12:53;9.80;;;8.17;;
11791;SDS011;5953;52.372;9.918;2023-08-12T05:15:22;14.83;;;8.73;;
11791;SDS011;5953;52.372;9.918;2023-08-12T05:17:50;12.97;;;9.20;;
11791;SDS011;5953;52.372;9.918;2023-08-12T05:20:18;11.23;;;8.77;;
11791;SDS011;5953;52.372;9.918;2023-08-12T05:22:47;11.37;;;8.97;;
11791;SDS011;5953;52.372;9.918;2023-08-12T05:25:14;12.53;;;9.20;;
11791;SDS011;5953;52.372;9.918;2023-08-12T05:27:42;12.83;;;8.50;;
11791;SDS011;5953;52.372;9.918;2023-08-12T05:30:10;11.87;;;9.40;;
11791;SDS011;5953;52.372;9.918;2023-08-12T05:32:39;14.07;;;10.17;;
11791;SDS011;5953;52.372;9.918;2023-08-12T05:35:07;9.87;;;8.87;;
11791;SDS011;5953;52.372;9.918;2023-08-12T05:37:35;13.40;;;9.67;;
11791;SDS011;5953;52.372;9.918;2023-08-12T05:40:05;13.40;;;9.47;;
11791;SDS011;5953;52.372;9.918;2023-08-12T05:42:34;12.90;;;9.20;;
11791;SDS011;5953;52.372;9.918;2023-08-12T05:45:02;13.10;;;9.00;;
11791;SDS011;5953;52.372;9.918;2023-08-12T05:47:34;10.70;;;9.63;;
11791;SDS011;5953;52.372;9.918;2023-08-12T05:50:02;14.23;;;9.90;;
11791;SDS011;5953;52.372;9.918;2023-08-12T05:52:30;14.70;;;10.80;;
11791;SDS011;5953;52.372;9.918;2023-08-12T05:54:57;12.30;;;10.03;;
11791;SDS011;5953;52.372;9.918;2023-08-12T05:57:26;11.27;;;9.83;;
11791;SDS011;5953;52.372;9.918;2023-08-12T05:59:55;12.00;;;10.33;;
11791;SDS011;5953;52.372;9.918;2023-08-12T06:02:23;12.10;;;10.50;;
11791;SDS011;5953;52.372;9.918;2023-08-12T06:04:50;12.47;;;10.53;;
11791;SDS011;5953;52.372;9.918;2023-08-12T06:07:18;14.67;;;11.07;;
11791;SDS011;5953;52.372;9.918;2023-08-12T06:09:46;10.93;;;9.70;;
11791;SDS011;5953;52.372;9.918;2023-08-12T06:12:14;11.97;;;10.10;;
11791;SDS011;5953;52.372;9.918;2023-08-12T06:14:43;13.43;;;10.93;;
11791;SDS011;5953;52.372;9.918;2023-08-12T06:17:11;11.83;;;10.13;;
11791;SDS011;5953;52.372;9.918;2023-08-12T06:19:38;10.73;;;9.33;;
11791;SDS011;5953;52.372;9.918;2023-08-12T06:22:06;19.67;;;12.43;;
11791;SDS011;5953;52.372;9.918;2023-08-12T06:24:34;12.37;;;10.87;;
11791;SDS011;5953;52.372;9.918;2023-08-12T06:27:02;13.80;;;10.80;;
11791;SDS011;5953;52.372;9.918;2023-08-12T06:29:30;12.70;;;10.70;;
11791;SDS011;5953;52.372;9.918;2023-08-12T06:31:59;12.00;;;10.80;;
11791;SDS011;5953;52.372;9.918;2023-08-12T06:34:26;12.43;;;10.10;;
11791;SDS011;5953;52.372;9.918;2023-08-12T06:36:54;13.93;;;11.40;;
11791;SDS011;5953;52.372;9.918;2023-08-12T06:39:22;17.63;;;11.95;;
11791;SDS011;5953;52.372;9.918;2023-08-12T06:41:50;16.83;;;11.27;;
11791;SDS011;5953;52.372;9.918;2023-08-12T06:44:18;17.50;;;11.10;;
11791;SDS011;5953;52.372;9.918;2023-08-12T06:46:46;20.75;;;12.05;;
11791;SDS011;5953;52.372;9.918;2023-08-12T06:49:15;14.52;;;11.00;;
11791;SDS011;5953;52.372;9.918;2023-08-12T06:51:43;13.90;;;10.73;;
11791;SDS011;5953;52.372;9.918;2023-08-12T06:54:11;16.10;;;11.88;;
11791;SDS011;5953;52.372;9.918;2023-08-12T06:56:39;14.77;;;11.77;;
11791;SDS011;5953;52.372;9.918;2023-08-12T06:59:06;14.88;;;11.25;;
11791;SDS011;5953;52.372;9.918;2023-08-12T07:01:34;13.75;;;10.77;;
11791;SDS011;5953;52.372;9.918;2023-08-12T07:04:03;16.25;;;10.30;;
11791;SDS011;5953;52.372;9.918;2023-08-12T07:06:32;15.68;;;10.65;;
11791;SDS011;5953;52.372;9.918;2023-08-12T07:09:00;16.13;;;11.52;;
11791;SDS011;5953;52.372;9.918;2023-08-12T07:11:27;15.57;;;11.70;;
11791;SDS011;5953;52.372;9.918;2023-08-12T07:13:55;13.50;;;10.83;;
11791;SDS011;5953;52.372;9.918;2023-08-12T07:16:23;15.10;;;11.40;;
11791;SDS011;5953;52.372;9.918;2023-08-12T07:18:50;13.45;;;11.40;;
11791;SDS011;5953;52.372;9.918;2023-08-12T07:21:18;14.88;;;10.50;;
11791;SDS011;5953;52.372;9.918;2023-08-12T07:23:47;14.05;;;11.52;;
11791;SDS011;5953;52.372;9.918;2023-08-12T07:26:29;17.08;;;9.70;;
11791;SDS011;5953;52.372;9.918;2023-08-12T07:28:57;13.77;;;9.77;;
11791;SDS011;5953;52.372;9.918;2023-08-12T07:31:25;11.85;;;10.45;;
11791;SDS011;5953;52.372;9.918;2023-08-12T07:33:54;10.70;;;9.45;;
11791;SDS011;5953;52.372;9.918;2023-08-12T07:36:21;14.90;;;10.65;;
11791;SDS011;5953;52.372;9.918;2023-08-12T07:38:51;14.13;;;10.18;;
11791;SDS011;5953;52.372;9.918;2023-08-12T07:41:18;11.02;;;9.68;;
11791;SDS011;5953;52.372;9.918;2023-08-12T07:43:46;12.90;;;9.27;;
11791;SDS011;5953;52.372;9.918;2023-08-12T07:46:14;10.85;;;9.02;;
11791;SDS011;5953;52.372;9.918;2023-08-12T07:48:42;13.60;;;9.57;;
11791;SDS011;5953;52.372;9.918;2023-08-12T07:51:09;12.25;;;9.70;;
11791;SDS011;5953;52.372;9.918;2023-08-12T07:53:37;13.35;;;10.25;;
11791;SDS011;5953;52.372;9.918;2023-08-12T07:56:06;13.25;;;10.05;;
11791;SDS011;5953;52.372;9.918;2023-08-12T07:58:34;15.02;;;10.45;;
11791;SDS011;5953;52.372;9.918;2023-08-12T08:01:02;13.40;;;9.25;;
11791;SDS011;5953;52.372;9.918;2023-08-12T08:03:31;10.30;;;8.35;;
11791;SDS011;5953;52.372;9.918;2023-08-12T08:05:58;10.05;;;8.02;;
11791;SDS011;5953;52.372;9.918;2023-08-12T08:08:26;9.68;;;8.20;;
11791;SDS011;5953;52.372;9.918;2023-08-12T08:10:54;14.70;;;8.13;;
11791;SDS011;5953;52.372;9.918;2023-08-12T08:13:23;9.73;;;6.93;;
11791;SDS011;5953;52.372;9.918;2023-08-12T08:15:51;10.65;;;8.63;;
11791;SDS011;5953;52.372;9.918;2023-08-12T08:18:19;11.20;;;8.50;;
11791;SDS011;5953;52.372;9.918;2023-08-12T08:20:46;11.05;;;7.93;;
11791;SDS011;5953;52.372;9.918;2023-08-12T08:23:15;11.38;;;7.68;;
11791;SDS011;5953;52.372;9.918;2023-08-12T08:25:42;10.57;;;8.48;;
11791;SDS011;5953;52.372;9.918;2023-08-12T08:28:10;9.63;;;7.70;;
11791;SDS011;5953;52.372;9.918;2023-08-12T08:30:40;10.95;;;7.90;;
11791;SDS011;5953;52.372;9.918;2023-08-12T08:33:08;10.07;;;7.20;;
11791;SDS011;5953;52.372;9.918;2023-08-12T08:35:36;10.15;;;6.20;;
11791;SDS011;5953;52.372;9.918;2023-08-12T08:38:03;7.28;;;5.72;;
11791;SDS011;5953;52.372;9.918;2023-08-12T08:40:31;9.60;;;5.90;;
11791;SDS011;5953;52.372;9.918;2023-08-12T08:43:00;6.72;;;5.53;;
11791;SDS011;5953;52.372;9.918;2023-08-12T08:45:30;5.80;;;5.20;;
11791;SDS011;5953;52.372;9.918;2023-08-12T08:48:01;10.18;;;5.00;;
11791;SDS011;5953;52.372;9.918;2023-08-12T08:50:30;5.97;;;5.38;;
11791;SDS011;5953;52.372;9.918;2023-08-12T08:52:58;6.80;;;5.38;;
11791;SDS011;5953;52.372;9.918;2023-08-12T08:55:30;5.97;;;5.15;;
11791;SDS011;5953;52.372;9.918;2023-08-12T08:57:59;5.43;;;4.85;;
11791;SDS011;5953;52.372;9.918;2023-08-12T09:00:30;7.55;;;5.63;;
11791;SDS011;5953;52.372;9.918;2023-08-12T09:02:59;8.27;;;6.00;;
11791;SDS011;5953;52.372;9.918;2023-08-12T09:05:28;9.98;;;6.03;;
11791;SDS011;5953;52.372;9.918;2023-08-12T09:07:58;7.80;;;5.82;;
11791;SDS011;5953;52.372;9.918;2023-08-12T09:10:27;8.98;;;5.70;;
11791;SDS011;5953;52.372;9.918;2023-08-12T09:12:56;6.00;;;5.28;;
11791;SDS011;5953;52.372;9.918;2023-08-12T09:15:25;6.97;;;5.72;;
11791;SDS011;5953;52.372;9.918;2023-08-12T09:17:53;8.63;;;5.97;;
11791;SDS011;5953;52.372;9.918;2023-08-12T09:20:22;5.70;;;5.10;;
11791;SDS011;5953;52.372;9.918;2023-08-12T09:22:55;5.65;;;5.15;;
11791;SDS011;5953;52.372;9.918;2023-08-12T09:25:24;6.13;;;5.00;;
11791;SDS011;5953;52.372;9.918;2023-08-12T09:27:53;6.75;;;5.30;;
11791;SDS011;5953;52.372;9.918;2023-08-12T09:30:22;8.10;;;5.00;;
11791;SDS011;5953;52.372;9.918;2023-08-12T09:32:59;8.90;;;5.25;;
11791;SDS011;5953;52.372;9.918;2023-08-12T09:35:35;6.40;;;4.75;;
11791;SDS011;5953;52.372;9.918;2023-08-12T09:38:04;6.47;;;5.38;;
11791;SDS011;5953;52.372;9.918;2023-08-12T09:40:34;8.75;;;5.30;;
11791;SDS011;5953;52.372;9.918;2023-08-12T09:43:02;6.47;;;5.20;;
11791;SDS011;5953;52.372;9.918;2023-08-12T09:45:31;5.43;;;4.72;;
11791;SDS011;5953;52.372;9.918;2023-08-12T09:48:00;6.88;;;5.63;;
11791;SDS011;5953;52.372;9.918;2023-08-12T09:50:28;7.25;;;4.65;;
11791;SDS011;5953;52.372;9.918;2023-08-12T09:52:58;5.53;;;5.03;;
11791;SDS011;5953;52.372;9.918;2023-08-12T09:55:29;7.10;;;5.85;;
11791;SDS011;5953;52.372;9.918;2023-08-12T09:57:59;8.32;;;5.22;;
11791;SDS011;5953;52.372;9.918;2023-08-12T10:00:27;6.63;;;5.10;;
11791;SDS011;5953;52.372;9.918;2023-08-12T10:02:55;6.50;;;4.82;;
11791;SDS011;5953;52.372;9.918;2023-08-12T10:05:24;9.88;;;5.43;;
11791;SDS011;5953;52.372;9.918;2023-08-12T10:07:55;5.47;;;4.97;;
11791;SDS011;5953;52.372;9.918;2023-08-12T10:10:24;5.80;;;5.25;;
11791;SDS011;5953;52.372;9.918;2023-08-12T10:12:52;8.27;;;5.97;;
11791;SDS011;5953;52.372;9.918;2023-08-12T10:15:21;5.03;;;4.53;;
11791;SDS011;5953;52.372;9.918;2023-08-12T10:17:51;5.80;;;5.30;;
11791;SDS011;5953;52.372;9.918;2023-08-12T10:20:20;6.78;;;5.13;;
11791;SDS011;5953;52.372;9.918;2023-08-12T10:22:48;6.22;;;5.47;;
11791;SDS011;5953;52.372;9.918;2023-08-12T10:25:17;7.88;;;4.55;;
11791;SDS011;5953;52.372;9.918;2023-08-12T10:27:49;5.63;;;5.03;;
11791;SDS011;5953;52.372;9.918;2023-08-12T10:30:17;6.32;;;4.80;;
11791;SDS011;5953;52.372;9.918;2023-08-12T10:32:47;6.75;;;5.32;;
11791;SDS011;5953;52.372;9.918;2023-08-12T10:35:15;6.93;;;5.60;;
11791;SDS011;5953;52.372;9.918;2023-08-12T10:37:45;8.35;;;5.30;;
11791;SDS011;5953;52.372;9.918;2023-08-12T10:40:19;6.20;;;5.53;;
11791;SDS011;5953;52.372;9.918;2023-08-12T10:42:49;5.35;;;4.80;;
11791;SDS011;5953;52.372;9.918;2023-08-12T10:45:17;5.40;;;4.90;;
11791;SDS011;5953;52.372;9.918;2023-08-12T10:47:48;6.30;;;5.00;;
11791;SDS011;5953;52.372;9.918;2023-08-12T10:50:22;5.55;;;5.00;;
11791;SDS011;5953;52.372;9.918;2023-08-12T10:52:52;7.00;;;5.03;;
11791;SDS011;5953;52.372;9.918;2023-08-12T10:55:21;6.28;;;4.88;;
11791;SDS011;5953;52.372;9.918;2023-08-12T10:57:52;6.15;;;5.13;;
11791;SDS011;5953;52.372;9.918;2023-08-12T11:00:23;6.63;;;5.03;;
11791;SDS011;5953;52.372;9.918;2023-08-12T11:02:53;5.10;;;4.70;;
11791;SDS011;5953;52.372;9.918;2023-08-12T11:05:22;5.05;;;4.30;;
11791;SDS011;5953;52.372;9.918;2023-08-12T11:07:55;5.95;;;4.90;;
11791;SDS011;5953;52.372;9.918;2023-08-12T11:10:25;4.93;;;4.30;;
11791;SDS011;5953;52.372;9.918;2023-08-12T11:12:58;5.28;;;4.78;;
11791;SDS011;5953;52.372;9.918;2023-08-12T11:15:29;5.38;;;4.53;;
11791;SDS011;5953;52.372;9.918;2023-08-12T11:17:58;5.13;;;4.63;;
11791;SDS011;5953;52.372;9.918;2023-08-12T11:20:27;5.60;;;4.60;;
11791;SDS011;5953;52.372;9.918;2023-08-12T11:22:55;6.45;;;4.68;;
11791;SDS011;5953;52.372;9.918;2023-08-12T11:25:24;4.22;;;3.92;;
11791;SDS011;5953;52.372;9.918;2023-08-12T11:27:53;5.28;;;4.57;;
11791;SDS011;5953;52.372;9.918;2023-08-12T11:30:23;4.47;;;4.07;;
11791;SDS011;5953;52.372;9.918;2023-08-12T11:32:53;5.78;;;3.97;;
11791;SDS011;5953;52.372;9.918;2023-08-12T11:35:23;4.38;;;3.97;;
11791;SDS011;5953;52.372;9.918;2023-08-12T11:37:52;4.07;;;3.38;;
11791;SDS011;5953;52.372;9.918;2023-08-12T11:40:22;5.18;;;4.13;;
11791;SDS011;5953;52.372;9.918;2023-08-12T11:42:51;5.47;;;3.42;;
11791;SDS011;5953;52.372;9.918;2023-08-12T11:45:20;5.30;;;3.67;;
11791;SDS011;5953;52.372;9.918;2023-08-12T11:47:50;3.90;;;3.60;;
11791;SDS011;5953;52.372;9.918;2023-08-12T11:50:22;3.88;;;3.58;;
11791;SDS011;5953;52.372;9.918;2023-08-12T11:52:50;4.05;;;3.75;;
11791;SDS011;5953;52.372;9.918;2023-08-12T11:55:19;3.83;;;3.53;;
11791;SDS011;5953;52.372;9.918;2023-08-12T11:57:47;3.97;;;3.50;;
11791;SDS011;5953;52.372;9.918;2023-08-12T12:00:15;3.90;;;3.53;;
11791;SDS011;5953;52.372;9.918;2023-08-12T12:02:47;4.25;;;3.85;;
11791;SDS011;5953;52.372;9.918;2023-08-12T12:05:16;5.22;;;4.03;;
11791;SDS011;5953;52.372;9.918;2023-08-12T12:07:49;5.20;;;3.90;;
11791;SDS011;5953;52.372;9.918;2023-08-12T12:10:18;4.13;;;3.80;;
11791;SDS011;5953;52.372;9.918;2023-08-12T12:12:48;5.38;;;4.10;;
11791;SDS011;5953;52.372;9.918;2023-08-12T12:15:16;6.88;;;4.13;;
11791;SDS011;5953;52.372;9.918;2023-08-12T12:17:44;3.53;;;3.30;;
11791;SDS011;5953;52.372;9.918;2023-08-12T12:20:14;4.43;;;3.70;;
11791;SDS011;5953;52.372;9.918;2023-08-12T12:22:42;3.30;;;3.00;;
11791;SDS011;5953;52.372;9.918;2023-08-12T12:25:12;3.90;;;3.60;;
11791;SDS011;5953;52.372;9.918;2023-08-12T12:27:41;4.05;;;3.20;;
11791;SDS011;5953;52.372;9.918;2023-08-12T12:30:12;4.22;;;3.50;;
11791;SDS011;5953;52.372;9.918;2023-08-12T12:32:41;4.90;;;3.15;;
11791;SDS011;5953;52.372;9.918;2023-08-12T12:35:10;3.30;;;3.00;;
11791;SDS011;5953;52.372;9.918;2023-08-12T12:37:40;4.05;;;3.17;;
11791;SDS011;5953;52.372;9.918;2023-08-12T12:40:09;5.00;;;3.25;;
11791;SDS011;5953;52.372;9.918;2023-08-12T12:42:38;3.97;;;3.20;;
11791;SDS011;5953;52.372;9.918;2023-08-12T12:45:06;3.83;;;3.47;;
11791;SDS011;5953;52.372;9.918;2023-08-12T12:47:34;3.72;;;2.90;;
11791;SDS011;5953;52.372;9.918;2023-08-12T12:50:04;3.03;;;2.80;;
11791;SDS011;5953;52.372;9.918;2023-08-12T12:52:33;3.05;;;2.85;;
11791;SDS011;5953;52.372;9.918;2023-08-12T12:55:01;3.50;;;3.20;;
11791;SDS011;5953;52.372;9.918;2023-08-12T12:57:30;3.28;;;2.90;;
11791;SDS011;5953;52.372;9.918;2023-08-12T12:59:58;4.20;;;2.85;;
11791;SDS011;5953;52.372;9.918;2023-08-12T13:02:25;3.75;;;3.45;;
11791;SDS011;5953;52.372;9.918;2023-08-12T13:04:54;3.58;;;3.28;;
11791;SDS011;5953;52.372;9.918;2023-08-12T13:07:22;3.10;;;2.90;;
11791;SDS011;5953;52.372;9.918;2023-08-12T13:09:51;3.22;;;2.95;;
11791;SDS011;5953;52.372;9.918;2023-08-12T13:12:19;3.38;;;2.88;;
11791;SDS011;5953;52.372;9.918;2023-08-12T13:14:46;3.47;;;2.92;;
11791;SDS011;5953;52.372;9.918;2023-08-12T13:17:14;3.03;;;2.80;;
11791;SDS011;5953;52.372;9.918;2023-08-12T13:19:42;5.07;;;2.75;;
11791;SDS011;5953;52.372;9.918;2023-08-12T13:22:10;4.22;;;3.20;;
11791;SDS011;5953;52.372;9.918;2023-08-12T13:24:38;3.33;;;3.03;;
11791;SDS011;5953;52.372;9.918;2023-08-12T13:27:07;3.00;;;2.80;;
11791;SDS011;5953;52.372;9.918;2023-08-12T13:29:35;2.83;;;2.58;;
11791;SDS011;5953;52.372;9.918;2023-08-12T13:32:03;3.40;;;2.40;;
11791;SDS011;5953;52.372;9.918;2023-08-12T13:34:32;2.97;;;2.30;;
11791;SDS011;5953;52.372;9.918;2023-08-12T13:36:59;2.85;;;2.65;;
11791;SDS011;5953;52.372;9.918;2023-08-12T13:39:27;3.35;;;3.00;;
11791;SDS011;5953;52.372;9.918;2023-08-12T13:41:55;2.95;;;2.45;;
11791;SDS011;5953;52.372;9.918;2023-08-12T13:44:24;3.00;;;2.70;;
11791;SDS011;5953;52.372;9.918;2023-08-12T13:46:52;2.88;;;2.67;;
11791;SDS011;5953;52.372;9.918;2023-08-12T13:49:19;2.78;;;2.50;;
11791;SDS011;5953;52.372;9.918;2023-08-12T13:51:47;2.88;;;2.63;;
11791;SDS011;5953;52.372;9.918;2023-08-12T13:54:15;2.95;;;2.13;;
11791;SDS011;5953;52.372;9.918;2023-08-12T13:56:43;2.40;;;2.20;;
11791;SDS011;5953;52.372;9.918;2023-08-12T13:59:10;2.10;;;1.90;;
11791;SDS011;5953;52.372;9.918;2023-08-12T14:01:39;2.22;;;2.10;;
11791;SDS011;5953;52.372;9.918;2023-08-12T14:04:09;2.78;;;2.42;;
11791;SDS011;5953;52.372;9.918;2023-08-12T14:06:36;2.30;;;2.10;;
11791;SDS011;5953;52.372;9.918;2023-08-12T14:09:06;2.72;;;2.00;;
11791;SDS011;5953;52.372;9.918;2023-08-12T14:11:34;2.58;;;1.88;;
11791;SDS011;5953;52.372;9.918;2023-08-12T14:14:02;2.50;;;2.30;;
11791;SDS011;5953;52.372;9.918;2023-08-12T14:16:30;2.40;;;2.20;;
11791;SDS011;5953;52.372;9.918;2023-08-12T14:19:00;2.83;;;2.00;;
11791;SDS011;5953;52.372;9.918;2023-08-12T14:21:28;2.58;;;2.20;;
11791;SDS011;5953;52.372;9.918;2023-08-12T14:23:56;3.03;;;2.03;;
11791;SDS011;5953;52.372;9.918;2023-08-12T14:26:24;2.85;;;2.20;;
11791;SDS011;5953;52.372;9.918;2023-08-12T14:28:52;2.58;;;2.25;;
11791;SDS011;5953;52.372;9.918;2023-08-12T14:31:19;2.50;;;1.90;;
11791;SDS011;5953;52.372;9.918;2023-08-12T14:33:47;3.17;;;1.70;;
11791;SDS011;5953;52.372;9.918;2023-08-12T14:36:16;1.77;;;1.60;;
11791;SDS011;5953;52.372;9.918;2023-08-12T14:38:44;1.73;;;1.45;;
11791;SDS011;5953;52.372;9.918;2023-08-12T14:41:12;1.58;;;1.05;;
11791;SDS011;5953;52.372;9.918;2023-08-12T14:43:40;1.20;;;1.10;;
11791;SDS011;5953;52.372;9.918;2023-08-12T14:46:08;1.20;;;1.10;;
11791;SDS011;5953;52.372;9.918;2023-08-12T14:48:36;2.15;;;1.20;;
11791;SDS011;5953;52.372;9.918;2023-08-12T14:51:03;1.42;;;1.33;;
11791;SDS011;5953;52.372;9.918;2023-08-12T14:53:32;1.10;;;1.00;;
11791;SDS011;5953;52.372;9.918;2023-08-12T14:56:00;1.75;;;1.20;;
11791;SDS011;5953;52.372;9.918;2023-08-12T14:58:29;2.05;;;1.13;;
11791;SDS011;5953;52.372;9.918;2023-08-12T15:00:57;1.70;;;1.15;;
11791;SDS011;5953;52.372;9.918;2023-08-12T15:03:27;1.23;;;1.00;;
11791;SDS011;5953;52.372;9.918;2023-08-12T15:05:58;0.77;;;0.77;;